Jordan, Minnesota
Current Conditions -  °F | °C
As of 6:03 AM on Sunday 23 Nov 2014 (Local Time) from KFCM Reporting Station
Haze Haze  
Wind Chill: 50°   Ceiling: 800
Heat Index: 50°   Visibility: 5mi
Dew Point: 48°   Wind: 5mph
Humidity: 93%   Direction: 170°S
Pressure: 29.42"   Gusts: NA
Location:  44.67°N, 93.63°W
Report Text: KFCM 231203Z 17004KT 5SM BR BKN008 OVC012 10/09 A2942 RMK AO2 CIG 006V011 T01000089
Loading
Personal Weather Stations






























Interactive Weather Map New forecast layout! Learn more

10-Day Weather Forecast

Advertisements
Track Severe Weather on mobile